createdAt,value
2019-05-11T00:01:07.976Z,2.43
2019-05-11T00:03:40.569Z,2.32
2019-05-11T00:06:10.650Z,2.12
2019-05-11T00:08:40.740Z,1.97
2019-05-11T00:11:11.040Z,1.87
2019-05-11T00:13:41.207Z,1.75
2019-05-11T00:16:11.412Z,1.64
2019-05-11T00:18:41.459Z,1.57
2019-05-11T00:21:11.545Z,1.57
2019-05-11T00:23:41.637Z,1.66
2019-05-11T00:26:11.682Z,1.67
2019-05-11T00:28:41.768Z,1.75
2019-05-11T00:31:11.894Z,1.66
2019-05-11T00:33:41.963Z,1.59
2019-05-11T00:36:12.085Z,1.51
2019-05-11T00:38:42.183Z,1.41
2019-05-11T00:41:12.229Z,1.31
2019-05-11T00:43:42.305Z,1.25
2019-05-11T00:46:12.377Z,1.18
2019-05-11T00:48:42.433Z,1.08
2019-05-11T00:51:12.550Z,1.15
2019-05-11T00:53:42.701Z,1.11
2019-05-11T00:56:12.812Z,1.02
2019-05-11T00:58:42.892Z,1.01
2019-05-11T01:01:13.010Z,1.09
2019-05-11T01:03:43.100Z,1.00
2019-05-11T01:06:13.204Z,0.93
2019-05-11T01:08:43.271Z,0.82
2019-05-11T01:11:13.317Z,0.78
2019-05-11T01:13:43.405Z,0.76
2019-05-11T01:16:13.482Z,0.74
2019-05-11T01:18:43.587Z,0.68
2019-05-11T01:21:13.653Z,0.71
2019-05-11T01:23:43.702Z,0.72
2019-05-11T01:26:13.845Z,0.62
2019-05-11T01:28:43.866Z,0.58
2019-05-11T01:31:13.956Z,0.60
2019-05-11T01:33:44.064Z,0.57
2019-05-11T01:36:14.141Z,0.55
2019-05-11T01:38:44.229Z,0.48
2019-05-11T01:41:14.306Z,0.49
2019-05-11T01:43:44.383Z,0.50
2019-05-11T01:46:14.657Z,0.89
2019-05-11T01:48:44.784Z,0.76
2019-05-11T01:51:14.868Z,0.67
2019-05-11T01:53:47.939Z,0.63
2019-05-11T01:56:17.052Z,0.86
2019-05-11T01:58:47.122Z,1.02
2019-05-11T02:01:17.198Z,0.97
2019-05-11T02:03:47.286Z,0.75
2019-05-11T02:06:17.616Z,0.60
2019-05-11T02:08:47.694Z,0.60
2019-05-11T02:11:17.785Z,0.69
2019-05-11T02:13:47.857Z,0.81
2019-05-11T02:16:17.954Z,0.68
2019-05-11T02:18:48.012Z,0.63
2019-05-11T02:21:18.097Z,0.49
2019-05-11T02:23:48.171Z,0.37
2019-05-11T02:26:18.266Z,0.31
2019-05-11T02:28:48.329Z,0.46
2019-05-11T02:31:18.385Z,0.43
2019-05-11T02:33:48.480Z,0.38
2019-05-11T02:36:18.544Z,0.21
2019-05-11T02:38:48.641Z,0.17
2019-05-11T02:41:34.546Z,0.06
2019-05-11T02:43:50.557Z,0.28
2019-05-11T02:46:20.632Z,0.33
2019-05-11T02:48:50.705Z,0.18
2019-05-11T02:51:20.989Z,0.18
2019-05-11T02:53:51.864Z,0.13
2019-05-11T02:56:21.942Z,0.12
2019-05-11T02:58:52.057Z,0.10
2019-05-11T03:01:22.196Z,0.14
2019-05-11T03:03:52.247Z,0.16
2019-05-11T03:06:22.328Z,0.21
2019-05-11T03:08:52.442Z,0.22
2019-05-11T03:11:22.539Z,0.16
2019-05-11T03:13:52.640Z,0.19
2019-05-11T03:16:22.743Z,0.29
2019-05-11T03:18:52.786Z,0.30
2019-05-11T03:21:22.862Z,0.29
2019-05-11T03:23:53.058Z,0.42
2019-05-11T03:26:23.158Z,0.48
2019-05-11T03:28:53.225Z,0.45
2019-05-11T03:31:23.316Z,0.45
2019-05-11T03:33:53.405Z,0.43
2019-05-11T03:36:23.480Z,0.43
2019-05-11T03:38:53.544Z,0.42
2019-05-11T03:41:23.632Z,0.35
2019-05-11T03:43:57.243Z,0.20
2019-05-11T03:46:27.334Z,0.08
2019-05-11T03:48:57.403Z,0.05
2019-05-11T03:51:27.456Z,0.17
2019-05-11T03:53:57.544Z,0.28
2019-05-11T03:56:28.941Z,0.23
2019-05-11T03:58:59.035Z,0.17
2019-05-11T04:01:29.130Z,0.17
2019-05-11T04:04:02.236Z,0.19
2019-05-11T04:06:32.554Z,0.20
2019-05-11T04:09:07.073Z,0.27
2019-05-11T04:11:37.105Z,0.50
2019-05-11T04:14:07.174Z,0.60
2019-05-11T04:16:37.277Z,0.59
2019-05-11T04:19:07.362Z,0.70
2019-05-11T04:21:40.005Z,1.02
2019-05-11T04:24:10.094Z,1.22
2019-05-11T04:26:40.182Z,1.23
2019-05-11T04:29:10.278Z,1.29
2019-05-11T04:31:40.471Z,1.35
2019-05-11T04:34:10.530Z,1.47
2019-05-11T04:36:40.570Z,1.55
2019-05-11T04:39:10.637Z,1.75
2019-05-11T04:41:40.735Z,1.90
2019-05-11T04:44:10.812Z,2.07
2019-05-11T04:46:41.102Z,2.28
2019-05-11T04:49:11.258Z,2.43
2019-05-11T04:51:41.390Z,2.56
2019-05-11T04:54:11.467Z,2.68
2019-05-11T04:56:41.573Z,2.83
2019-05-11T04:59:11.646Z,2.82
2019-05-11T05:01:41.726Z,2.79
2019-05-11T05:04:14.459Z,2.92
2019-05-11T05:06:57.844Z,3.16
2019-05-11T05:09:18.988Z,3.26
2019-05-11T05:11:49.139Z,3.35
2019-05-11T05:14:19.205Z,3.43
2019-05-11T05:16:49.334Z,3.57
2019-05-11T05:19:19.394Z,3.74
2019-05-11T05:21:49.472Z,3.84
2019-05-11T05:24:19.577Z,3.97
2019-05-11T05:26:49.649Z,4.06
2019-05-11T05:29:20.316Z,4.08
2019-05-11T05:31:50.566Z,4.20
2019-05-11T05:34:20.638Z,4.31
2019-05-11T05:36:50.713Z,4.40
2019-05-11T05:39:20.829Z,4.58
2019-05-11T05:41:56.993Z,4.87
2019-05-11T05:44:23.065Z,5.11
2019-05-11T05:46:53.163Z,5.37
2019-05-11T05:49:23.248Z,5.21
2019-05-11T05:51:53.314Z,5.26
2019-05-11T05:54:23.388Z,5.32
2019-05-11T05:56:53.485Z,5.48
2019-05-11T05:59:23.577Z,5.65
2019-05-11T06:01:56.147Z,6.43
2019-05-11T06:04:26.227Z,6.94
2019-05-11T06:06:56.312Z,6.60
2019-05-11T06:09:26.622Z,7.03
2019-05-11T06:11:56.738Z,7.32
2019-05-11T06:14:26.868Z,7.36
2019-05-11T06:16:57.445Z,7.30
2019-05-11T06:19:27.508Z,7.52
2019-05-11T06:21:57.609Z,7.54
2019-05-11T06:24:27.758Z,7.47
2019-05-11T06:26:57.872Z,7.21
2019-05-11T06:29:27.983Z,9.09
2019-05-11T06:31:58.082Z,9.54
2019-05-11T06:34:28.188Z,10.60
2019-05-11T06:36:58.280Z,11.37
2019-05-11T06:39:28.475Z,12.34
2019-05-11T06:41:58.561Z,12.31
2019-05-11T06:44:31.490Z,11.51
2019-05-11T06:47:01.641Z,11.48
2019-05-11T06:49:31.768Z,11.59
2019-05-11T06:52:01.842Z,10.54
2019-05-11T06:54:31.927Z,10.77
2019-05-11T06:57:01.997Z,11.88
2019-05-11T06:59:33.662Z,11.94
2019-05-11T07:02:03.750Z,11.61
2019-05-11T07:04:33.837Z,12.13
2019-05-11T07:07:04.020Z,11.72
2019-05-11T07:09:34.129Z,12.40
2019-05-11T07:12:04.259Z,12.26
2019-05-11T07:14:34.398Z,12.59
2019-05-11T07:17:04.508Z,12.52
2019-05-11T07:19:34.623Z,13.09
2019-05-11T07:22:04.717Z,13.02
2019-05-11T07:24:37.808Z,13.29
2019-05-11T07:27:07.906Z,13.19
2019-05-11T07:29:38.011Z,13.20
2019-05-11T07:32:19.987Z,13.20
2019-05-11T07:34:39.906Z,13.67
2019-05-11T07:37:09.988Z,12.09
2019-05-11T07:39:40.109Z,13.05
2019-05-11T07:42:10.199Z,12.98
2019-05-11T07:44:41.877Z,12.97
2019-05-11T07:47:12.186Z,13.44
2019-05-11T07:49:42.294Z,13.94
2019-05-11T07:52:12.392Z,14.00
2019-05-11T07:54:42.504Z,14.10
2019-05-11T07:57:12.584Z,14.32
2019-05-11T07:59:42.705Z,14.38
2019-05-11T08:02:12.801Z,13.70
2019-05-11T08:04:42.908Z,13.53
2019-05-11T08:07:12.993Z,14.44
2019-05-11T08:09:43.307Z,13.92
2019-05-11T08:12:13.451Z,14.06
2019-05-11T08:14:56.564Z,13.21
2019-05-11T08:17:15.399Z,13.99
2019-05-11T08:19:47.633Z,13.71
2019-05-11T08:22:22.154Z,14.73
2019-05-11T08:24:49.191Z,14.09
2019-05-11T08:27:19.295Z,14.18
2019-05-11T08:29:49.399Z,13.82
2019-05-11T08:32:19.487Z,14.56
2019-05-11T08:34:49.596Z,14.40
2019-05-11T08:37:19.722Z,14.46
2019-05-11T08:39:49.827Z,14.77
2019-05-11T08:42:19.975Z,14.96
2019-05-11T08:44:50.103Z,14.58
2019-05-11T08:47:20.225Z,14.64
2019-05-11T08:49:50.331Z,14.15
2019-05-11T08:52:28.050Z,14.82
2019-05-11T08:54:57.977Z,15.24
2019-05-11T08:57:28.668Z,14.71
2019-05-11T08:59:58.990Z,15.23
2019-05-11T09:02:29.068Z,15.58
2019-05-11T09:04:59.204Z,15.79
2019-05-11T09:07:29.273Z,16.35
2019-05-11T09:10:01.936Z,16.05
2019-05-11T09:12:35.324Z,16.47
2019-05-11T09:15:05.987Z,15.53
2019-05-11T09:17:38.112Z,15.86
2019-05-11T09:20:08.871Z,15.32
2019-05-11T09:22:39.062Z,15.37
2019-05-11T09:25:09.283Z,15.64
2019-05-11T09:27:39.442Z,16.74
2019-05-11T09:30:09.734Z,16.47
2019-05-11T09:32:39.813Z,14.69
2019-05-11T09:35:09.965Z,15.63
2019-05-11T09:37:40.068Z,16.46
2019-05-11T09:40:10.388Z,16.69
2019-05-11T09:42:40.479Z,16.35
2019-05-11T09:45:10.891Z,16.72
2019-05-11T09:47:43.119Z,15.79
2019-05-11T09:50:13.354Z,15.90
2019-05-11T09:52:43.445Z,17.22
2019-05-11T09:55:13.638Z,17.32
2019-05-11T09:57:43.743Z,17.38
2019-05-11T10:00:13.983Z,16.98
2019-05-11T10:02:44.123Z,16.89
2019-05-11T10:05:14.539Z,16.80
2019-05-11T10:07:44.627Z,16.99
2019-05-11T10:10:14.880Z,16.86
2019-05-11T10:12:44.991Z,16.78
2019-05-11T10:15:15.631Z,16.90
2019-05-11T10:17:48.134Z,17.19
2019-05-11T10:20:18.311Z,16.74
2019-05-11T10:22:48.809Z,17.60
2019-05-11T10:25:18.914Z,17.53
2019-05-11T10:27:49.271Z,17.64
2019-05-11T10:30:21.183Z,17.89
2019-05-11T10:32:51.292Z,16.88
2019-05-11T10:35:29.018Z,17.54
2019-05-11T10:37:59.285Z,18.51
2019-05-11T10:40:29.979Z,18.48
2019-05-11T10:43:00.138Z,17.79
2019-05-11T10:45:30.348Z,17.79
2019-05-11T10:48:01.066Z,18.54
2019-05-11T10:50:32.649Z,18.75
2019-05-11T10:53:02.726Z,18.83
2019-05-11T10:55:32.803Z,18.02
2019-05-11T10:58:02.899Z,17.87
2019-05-11T11:00:32.971Z,17.53
2019-05-11T11:03:03.102Z,17.71
2019-05-11T11:05:33.207Z,18.21
2019-05-11T11:08:03.343Z,17.34
2019-05-11T11:10:33.439Z,17.86
2019-05-11T11:13:03.670Z,18.12
2019-05-11T11:15:33.786Z,18.32
2019-05-11T11:18:08.309Z,18.02
2019-05-11T11:20:38.378Z,18.19
2019-05-11T11:23:09.001Z,18.45
2019-05-11T11:25:39.057Z,17.94
2019-05-11T11:28:09.233Z,17.57
2019-05-11T11:30:39.326Z,18.32
2019-05-11T11:33:09.458Z,18.05
2019-05-11T11:35:39.514Z,18.26
2019-05-11T11:38:09.615Z,17.79
2019-05-11T11:40:42.686Z,16.70
2019-05-11T11:43:11.518Z,17.25
2019-05-11T11:45:41.638Z,16.70
2019-05-11T11:48:11.713Z,16.93
2019-05-11T11:50:41.817Z,17.28
2019-05-11T11:53:12.316Z,17.65
2019-05-11T11:55:42.488Z,17.74
2019-05-11T11:58:12.589Z,18.02
2019-05-11T12:00:42.681Z,18.80
2019-05-11T12:03:12.788Z,18.44
2019-05-11T12:05:42.856Z,16.67
2019-05-11T12:08:13.001Z,16.56
2019-05-11T12:10:43.144Z,16.44
2019-05-11T12:13:13.251Z,17.07
2019-05-11T12:15:43.314Z,16.49
2019-05-11T12:18:13.461Z,17.59
2019-05-11T12:20:43.751Z,18.56
2019-05-11T12:23:13.869Z,18.32
2019-05-11T12:25:43.959Z,18.57
2019-05-11T12:28:14.050Z,18.77
2019-05-11T12:30:44.142Z,18.43
2019-05-11T12:33:14.220Z,18.84
2019-05-11T12:35:44.598Z,18.24
2019-05-11T12:38:14.726Z,17.84
2019-05-11T12:40:44.826Z,17.77
2019-05-11T12:43:14.938Z,17.55
2019-05-11T12:45:45.030Z,18.30
2019-05-11T12:48:15.134Z,18.01
2019-05-11T12:50:45.206Z,17.88
2019-05-11T12:53:15.360Z,17.52
2019-05-11T12:55:45.485Z,18.03
2019-05-11T12:58:17.981Z,16.66
2019-05-11T13:00:48.097Z,16.99
2019-05-11T13:03:18.884Z,18.01
2019-05-11T13:05:48.919Z,17.71
2019-05-11T13:08:19.004Z,18.03
2019-05-11T13:10:49.113Z,18.76
2019-05-11T13:13:19.201Z,18.23
2019-05-11T13:15:49.333Z,18.18
2019-05-11T13:18:19.410Z,18.17
2019-05-11T13:20:49.549Z,17.07
2019-05-11T13:23:19.761Z,16.93
2019-05-11T13:25:49.872Z,18.10
2019-05-11T13:28:19.978Z,17.66
2019-05-11T13:30:50.081Z,17.53
2019-05-11T13:33:20.188Z,17.56
2019-05-11T13:35:50.289Z,17.67
2019-05-11T13:38:20.403Z,18.38
2019-05-11T13:40:59.010Z,18.24
2019-05-11T13:43:29.273Z,18.44
2019-05-11T13:45:59.455Z,18.88
2019-05-11T13:48:29.663Z,18.46
2019-05-11T13:50:59.776Z,18.79
2019-05-11T13:53:29.826Z,19.71
2019-05-11T13:55:59.929Z,19.35
2019-05-11T13:58:30.015Z,19.58
2019-05-11T14:01:00.279Z,19.33
2019-05-11T14:03:31.217Z,18.79
2019-05-11T14:06:01.599Z,18.60
2019-05-11T14:08:31.735Z,18.98
2019-05-11T14:11:03.924Z,19.67
2019-05-11T14:13:34.180Z,18.63
2019-05-11T14:16:04.315Z,18.32
2019-05-11T14:18:34.423Z,18.16
2019-05-11T14:21:04.530Z,18.98
2019-05-11T14:23:39.352Z,18.55
2019-05-11T14:26:09.479Z,19.60
2019-05-11T14:28:39.672Z,20.20
2019-05-11T14:31:09.750Z,19.33
2019-05-11T14:33:39.838Z,20.21
2019-05-11T14:36:10.006Z,19.95
2019-05-11T14:38:40.144Z,19.80
2019-05-11T14:41:10.244Z,20.29
2019-05-11T14:43:40.388Z,20.28
2019-05-11T14:46:10.498Z,19.93
2019-05-11T14:48:43.013Z,19.08
2019-05-11T14:51:14.082Z,20.66
2019-05-11T14:53:44.239Z,20.22
2019-05-11T14:56:14.447Z,20.18
2019-05-11T14:58:44.541Z,20.38
2019-05-11T15:01:15.036Z,20.88
2019-05-11T15:03:45.117Z,20.56
2019-05-11T15:06:15.352Z,18.92
2019-05-11T15:08:47.656Z,17.99
2019-05-11T15:11:19.178Z,16.51
2019-05-11T15:13:49.095Z,16.25
2019-05-11T15:16:19.232Z,17.67
2019-05-11T15:18:49.342Z,19.15
2019-05-11T15:21:19.433Z,19.92
2019-05-11T15:23:49.518Z,19.74
2019-05-11T15:26:19.634Z,19.54
2019-05-11T15:28:49.705Z,17.09
2019-05-11T15:31:22.516Z,15.49
2019-05-11T15:33:51.778Z,17.90
2019-05-11T15:36:22.010Z,19.16
2019-05-11T15:38:52.098Z,19.24
2019-05-11T15:41:22.229Z,18.51
2019-05-11T15:43:52.307Z,19.10
2019-05-11T15:46:22.396Z,19.45
2019-05-11T15:48:59.404Z,19.43
2019-05-11T15:51:29.173Z,19.36
2019-05-11T15:54:13.459Z,18.99
2019-05-11T15:57:31.200Z,18.13
2019-05-11T16:00:22.422Z,17.57
2019-05-11T16:02:54.325Z,17.19
2019-05-11T16:05:28.518Z,17.24
2019-05-11T16:08:01.718Z,17.03
2019-05-11T16:10:30.729Z,16.78
2019-05-11T16:13:00.951Z,16.72
2019-05-11T16:15:31.687Z,16.26
2019-05-11T16:18:13.743Z,16.20
2019-05-11T16:20:43.520Z,15.66
2019-05-11T16:23:13.621Z,15.52
2019-05-11T16:25:43.735Z,15.26
2019-05-11T16:28:13.805Z,15.63
2019-05-11T16:30:43.895Z,15.62
2019-05-11T16:33:14.056Z,15.53
2019-05-11T16:35:44.158Z,15.18
2019-05-11T16:38:14.285Z,15.03
2019-05-11T16:40:44.384Z,15.21
2019-05-11T16:43:14.472Z,15.04
2019-05-11T16:45:44.923Z,14.83
2019-05-11T16:48:15.055Z,14.80
2019-05-11T16:50:45.202Z,14.75
2019-05-11T16:53:17.977Z,14.34
2019-05-11T16:55:48.571Z,14.40
2019-05-11T16:58:20.006Z,14.46
2019-05-11T17:00:50.228Z,14.69
2019-05-11T17:03:23.263Z,14.51
2019-05-11T17:05:54.625Z,14.31
2019-05-11T17:08:24.754Z,14.35
2019-05-11T17:10:59.137Z,14.44
2019-05-11T17:13:29.420Z,14.19
2019-05-11T17:15:59.495Z,14.20
2019-05-11T17:18:29.599Z,13.78
2019-05-11T17:21:07.814Z,13.79
2019-05-11T17:23:38.373Z,13.91
2019-05-11T17:26:11.904Z,13.86
2019-05-11T17:28:42.008Z,13.88
2019-05-11T17:31:12.291Z,13.74
2019-05-11T17:33:42.383Z,13.66
2019-05-11T17:36:12.516Z,13.42
2019-05-11T17:38:42.603Z,13.00
2019-05-11T17:41:12.876Z,12.90
2019-05-11T17:43:43.040Z,12.87
2019-05-11T17:46:13.108Z,12.76
2019-05-11T17:48:43.677Z,12.68
2019-05-11T17:51:21.230Z,12.71
2019-05-11T17:53:48.090Z,12.70
2019-05-11T17:56:17.798Z,12.58
2019-05-11T17:58:48.389Z,12.49
2019-05-11T18:01:19.027Z,12.31
2019-05-11T18:03:49.214Z,12.13
2019-05-11T18:06:19.320Z,12.06
2019-05-11T18:08:49.399Z,11.99
2019-05-11T18:11:19.505Z,11.89
2019-05-11T18:13:49.633Z,11.70
2019-05-11T18:16:19.736Z,11.61
2019-05-11T18:18:49.836Z,11.59
2019-05-11T18:21:19.953Z,11.61
2019-05-11T18:23:50.053Z,11.69
2019-05-11T18:26:20.151Z,11.63
2019-05-11T18:28:50.413Z,11.40
2019-05-11T18:31:20.533Z,11.22
2019-05-11T18:33:50.729Z,11.29
2019-05-11T18:36:20.971Z,11.29
2019-05-11T18:38:51.087Z,11.33
2019-05-11T18:41:21.331Z,11.34
2019-05-11T18:43:51.490Z,11.33
2019-05-11T18:46:21.686Z,11.32
2019-05-11T18:48:51.782Z,11.34
2019-05-11T18:51:21.904Z,11.39
2019-05-11T18:53:51.991Z,11.36
2019-05-11T18:56:22.111Z,11.26
2019-05-11T18:58:52.282Z,11.21
2019-05-11T19:01:22.380Z,11.15
2019-05-11T19:03:52.515Z,11.03
2019-05-11T19:06:22.676Z,11.03
2019-05-11T19:08:52.810Z,10.96
2019-05-11T19:11:23.036Z,10.82
2019-05-11T19:13:53.089Z,10.77
2019-05-11T19:16:23.229Z,10.67
2019-05-11T19:18:53.404Z,10.62
2019-05-11T19:21:23.523Z,10.55
2019-05-11T19:23:53.626Z,10.47
2019-05-11T19:26:25.628Z,10.40
2019-05-11T19:28:58.223Z,10.35
2019-05-11T19:31:28.084Z,10.24
2019-05-11T19:33:58.348Z,10.19
2019-05-11T19:36:28.616Z,10.09
2019-05-11T19:38:58.788Z,10.03
2019-05-11T19:41:28.891Z,9.98
2019-05-11T19:43:59.065Z,9.94
2019-05-11T19:46:29.175Z,9.94
2019-05-11T19:48:59.274Z,9.88
2019-05-11T19:51:29.631Z,9.83
2019-05-11T19:53:59.765Z,9.76
2019-05-11T19:56:29.869Z,9.70
2019-05-11T19:59:00.006Z,9.76
2019-05-11T20:01:30.096Z,9.71
2019-05-11T20:04:00.239Z,9.66
2019-05-11T20:06:33.344Z,9.62
2019-05-11T20:09:05.784Z,9.54
2019-05-11T20:11:38.240Z,9.48
2019-05-11T20:14:08.141Z,9.37
2019-05-11T20:16:38.450Z,9.26
2019-05-11T20:19:08.834Z,9.15
2019-05-11T20:21:39.158Z,9.06
2019-05-11T20:24:09.322Z,9.00
2019-05-11T20:26:39.431Z,8.90
2019-05-11T20:29:09.542Z,8.82
2019-05-11T20:31:39.686Z,8.72
2019-05-11T20:34:09.810Z,8.65
2019-05-11T20:36:39.914Z,8.61
2019-05-11T20:39:10.025Z,8.51
2019-05-11T20:41:40.151Z,8.44
2019-05-11T20:44:10.281Z,8.38
2019-05-11T20:46:40.444Z,8.29
2019-05-11T20:49:10.560Z,8.20
2019-05-11T20:51:40.682Z,8.18
2019-05-11T20:54:10.745Z,8.10
2019-05-11T20:56:40.822Z,8.05
2019-05-11T20:59:11.408Z,8.01
2019-05-11T21:01:41.499Z,7.97
2019-05-11T21:04:11.596Z,7.88
2019-05-11T21:06:41.786Z,7.84
2019-05-11T21:09:11.889Z,7.75
2019-05-11T21:11:42.034Z,7.65
2019-05-11T21:14:12.123Z,7.56
2019-05-11T21:16:42.298Z,7.55
2019-05-11T21:19:12.383Z,7.48
2019-05-11T21:21:50.102Z,7.43
2019-05-11T21:24:14.436Z,7.38
2019-05-11T21:26:44.502Z,7.33
2019-05-11T21:29:14.622Z,7.28
2019-05-11T21:31:44.711Z,7.25
2019-05-11T21:34:14.847Z,7.25
2019-05-11T21:36:44.904Z,7.17
2019-05-11T21:39:15.009Z,7.11
2019-05-11T21:41:45.122Z,7.04
2019-05-11T21:44:18.919Z,7.01
2019-05-11T21:46:49.217Z,7.00
2019-05-11T21:49:19.319Z,6.95
2019-05-11T21:52:03.549Z,6.88
2019-05-11T21:54:21.270Z,6.83
2019-05-11T21:56:51.340Z,6.78
2019-05-11T21:59:21.465Z,6.70
2019-05-11T22:01:51.587Z,6.69
2019-05-11T22:04:21.668Z,6.63
2019-05-11T22:06:51.789Z,6.58
2019-05-11T22:09:21.841Z,6.57
2019-05-11T22:11:52.020Z,6.45
2019-05-11T22:14:22.110Z,6.43
2019-05-11T22:16:52.313Z,6.35
2019-05-11T22:19:22.391Z,6.36
2019-05-11T22:21:52.466Z,6.23
2019-05-11T22:24:22.568Z,6.24
2019-05-11T22:26:52.639Z,6.17
2019-05-11T22:29:22.718Z,6.17
2019-05-11T22:31:52.806Z,6.12
2019-05-11T22:34:22.896Z,6.12
2019-05-11T22:36:53.003Z,6.03
2019-05-11T22:39:23.215Z,6.00
2019-05-11T22:41:53.291Z,6.00
2019-05-11T22:44:23.408Z,5.92
2019-05-11T22:46:53.484Z,5.86
2019-05-11T22:49:28.417Z,5.88
2019-05-11T22:51:59.783Z,5.77
2019-05-11T22:54:30.068Z,5.76
2019-05-11T22:57:00.157Z,5.73
2019-05-11T22:59:30.323Z,5.72
2019-05-11T23:02:00.455Z,5.69
2019-05-11T23:04:30.541Z,5.70
2019-05-11T23:07:00.603Z,5.62
2019-05-11T23:09:30.679Z,5.54
2019-05-11T23:12:01.134Z,5.54
2019-05-11T23:14:31.277Z,5.42
2019-05-11T23:17:01.378Z,5.40
2019-05-11T23:19:31.785Z,5.33
2019-05-11T23:22:05.043Z,5.27
2019-05-11T23:24:36.501Z,5.23
2019-05-11T23:27:07.998Z,5.18
2019-05-11T23:29:38.473Z,5.16
2019-05-11T23:32:08.804Z,5.14
2019-05-11T23:34:38.942Z,5.09
2019-05-11T23:37:09.000Z,5.06
2019-05-11T23:39:39.573Z,4.96
2019-05-11T23:42:12.736Z,4.92
2019-05-11T23:44:45.613Z,4.95
2019-05-11T23:47:14.714Z,4.90
2019-05-11T23:49:44.766Z,4.83
2019-05-11T23:52:14.877Z,4.73
2019-05-11T23:54:44.935Z,4.66
2019-05-11T23:57:18.648Z,4.62
2019-05-11T23:59:48.966Z,4.65
